createdAt,value
2018-07-17T00:01:28.450Z,101014.16
2018-07-17T00:03:55.457Z,101007.73
2018-07-17T00:06:22.558Z,101002.78
2018-07-17T00:08:49.585Z,101002.20
2018-07-17T00:11:16.702Z,100998.23
2018-07-17T00:13:43.937Z,101000.45
2018-07-17T00:16:11.052Z,100998.14
2018-07-17T00:18:38.160Z,100994.52
2018-07-17T00:21:05.378Z,101003.37
2018-07-17T00:23:32.439Z,100995.26
2018-07-17T00:25:59.573Z,101001.42
2018-07-17T00:28:26.585Z,100993.50
2018-07-17T00:30:53.565Z,100995.67
2018-07-17T00:33:20.590Z,100993.56
2018-07-17T00:35:48.836Z,100995.05
2018-07-17T00:38:15.837Z,100995.42
2018-07-17T00:40:42.808Z,100993.45
2018-07-17T00:43:09.801Z,100995.13
2018-07-17T00:45:36.833Z,100992.03
2018-07-17T00:48:03.858Z,100990.55
2018-07-17T00:50:30.845Z,100989.72
2018-07-17T00:52:57.889Z,100990.41
2018-07-17T00:55:24.877Z,100984.12
2018-07-17T00:57:52.251Z,100989.28
2018-07-17T01:00:19.268Z,100989.14
2018-07-17T01:02:51.912Z,100985.01
2018-07-17T01:05:24.584Z,100991.16
2018-07-17T01:07:57.370Z,100991.84
2018-07-17T01:10:30.590Z,100988.21
2018-07-17T01:12:57.129Z,100983.28
2018-07-17T01:15:28.857Z,100987.91
2018-07-17T01:17:55.874Z,100983.30
2018-07-17T01:20:22.890Z,100987.13
2018-07-17T01:22:49.889Z,100982.16
2018-07-17T01:25:16.913Z,100977.05
2018-07-17T01:27:44.008Z,100981.21
2018-07-17T01:30:11.014Z,100973.59
2018-07-17T01:32:38.010Z,100975.08
2018-07-17T01:35:05.601Z,100974.44
2018-07-17T01:38:03.502Z,100967.50
2018-07-17T01:40:30.517Z,100967.84
2018-07-17T01:42:57.523Z,100971.18
2018-07-17T01:45:24.501Z,100973.68
2018-07-17T01:47:51.553Z,100970.05
2018-07-17T01:50:18.525Z,100970.88
2018-07-17T01:52:45.569Z,100966.56
2018-07-17T01:55:12.588Z,100961.94
2018-07-17T01:57:39.831Z,100963.45
2018-07-17T02:00:06.901Z,100964.10
2018-07-17T02:02:33.885Z,100964.97
2018-07-17T02:05:00.909Z,100959.67
2018-07-17T02:07:27.945Z,100959.86
2018-07-17T02:09:54.924Z,100965.84
2018-07-17T02:12:21.954Z,100962.55
2018-07-17T02:14:48.995Z,100962.36
2018-07-17T02:17:15.969Z,100958.72
2018-07-17T02:19:42.964Z,100965.02
2018-07-17T02:22:09.932Z,100967.52
2018-07-17T02:24:36.918Z,100963.38
2018-07-17T02:27:04.074Z,100951.64
2018-07-17T02:29:31.056Z,100968.72
2018-07-17T02:31:58.470Z,100962.43
2018-07-17T02:34:25.461Z,100966.89
2018-07-17T02:36:52.608Z,100961.13
2018-07-17T02:39:19.592Z,100963.94
2018-07-17T02:41:46.569Z,100961.12
2018-07-17T02:44:13.575Z,100959.00
2018-07-17T02:46:40.541Z,100958.33
2018-07-17T02:49:07.549Z,100954.20
2018-07-17T02:51:34.592Z,100955.36
2018-07-17T02:54:01.522Z,100949.42
2018-07-17T02:56:28.621Z,100956.38
2018-07-17T02:58:55.720Z,100954.09
2018-07-17T03:01:22.762Z,100957.39
2018-07-17T03:03:49.841Z,100953.60
2018-07-17T03:06:16.809Z,100950.30
2018-07-17T03:08:43.806Z,100949.66
2018-07-17T03:11:10.837Z,100949.50
2018-07-17T03:13:37.814Z,100951.47
2018-07-17T03:16:04.841Z,100953.47
2018-07-17T03:18:31.917Z,100952.63
2018-07-17T03:20:59.637Z,100949.67
2018-07-17T03:23:26.778Z,100953.31
2018-07-17T03:25:53.806Z,100949.83
2018-07-17T03:28:20.789Z,100956.63
2018-07-17T03:30:47.819Z,100962.77
2018-07-17T03:33:14.846Z,100960.11
2018-07-17T03:35:41.833Z,100956.45
2018-07-17T03:38:08.833Z,100965.23
2018-07-17T03:40:36.077Z,100966.55
2018-07-17T03:43:03.036Z,100965.91
2018-07-17T03:45:30.054Z,100965.07
2018-07-17T03:47:57.033Z,100960.11
2018-07-17T03:50:24.022Z,100960.95
2018-07-17T03:52:51.017Z,100960.42
2018-07-17T03:55:18.017Z,100957.94
2018-07-17T03:57:45.022Z,100951.99
2018-07-17T04:00:11.989Z,100953.31
2018-07-17T04:02:39.700Z,100950.82
2018-07-17T04:05:06.737Z,100945.83
2018-07-17T04:07:33.724Z,100948.33
2018-07-17T04:10:01.087Z,100953.11
2018-07-17T04:12:28.073Z,100954.59
2018-07-17T04:14:55.265Z,100952.09
2018-07-17T04:17:22.273Z,100957.70
2018-07-17T04:19:49.232Z,100961.53
2018-07-17T04:22:16.259Z,100950.06
2018-07-17T04:24:43.296Z,100956.84
2018-07-17T04:27:10.278Z,100966.62
2018-07-17T04:29:37.291Z,100967.11
2018-07-17T04:32:04.255Z,100971.06
2018-07-17T04:34:31.289Z,100968.38
2018-07-17T04:36:58.306Z,100964.40
2018-07-17T04:39:25.284Z,100971.98
2018-07-17T04:41:52.267Z,100970.16
2018-07-17T04:44:19.280Z,100974.11
2018-07-17T04:46:46.261Z,100971.83
2018-07-17T04:49:13.259Z,100967.13
2018-07-17T04:51:40.236Z,100965.42
2018-07-17T04:54:07.245Z,100965.58
2018-07-17T04:56:34.277Z,100952.62
2018-07-17T04:59:01.282Z,100953.25
2018-07-17T05:01:28.551Z,100955.03
2018-07-17T05:03:55.493Z,100955.52
2018-07-17T05:06:22.490Z,100957.64
2018-07-17T05:08:49.464Z,100961.76
2018-07-17T05:11:16.489Z,100959.89
2018-07-17T05:13:43.457Z,100969.48
2018-07-17T05:16:10.449Z,100971.55
2018-07-17T05:18:37.417Z,100965.53
2018-07-17T05:21:04.394Z,100964.64
2018-07-17T05:23:31.425Z,100965.23
2018-07-17T05:25:58.626Z,100966.69
2018-07-17T05:28:25.638Z,100964.99
2018-07-17T05:30:53.593Z,100971.56
2018-07-17T05:33:20.605Z,100976.61
2018-07-17T05:35:47.581Z,100983.67
2018-07-17T05:38:14.589Z,100980.75
2018-07-17T05:40:41.748Z,100978.01
2018-07-17T05:43:08.744Z,100985.01
2018-07-17T05:45:35.740Z,100984.98
2018-07-17T05:48:02.766Z,100986.25
2018-07-17T05:50:29.753Z,100984.84
2018-07-17T05:52:56.837Z,100976.66
2018-07-17T05:55:24.001Z,100988.40
2018-07-17T05:57:51.717Z,100987.17
2018-07-17T06:00:19.239Z,100985.05
2018-07-17T06:02:46.250Z,100982.98
2018-07-17T06:05:13.257Z,100985.41
2018-07-17T06:07:40.261Z,100984.65
2018-07-17T06:10:07.362Z,100988.08
2018-07-17T06:12:34.349Z,100988.34
2018-07-17T06:15:01.313Z,100990.26
2018-07-17T06:17:28.309Z,100992.28
2018-07-17T06:19:55.285Z,100997.69
2018-07-17T06:22:22.344Z,100999.03
2018-07-17T06:24:49.338Z,100999.09
2018-07-17T06:27:16.721Z,100995.51
2018-07-17T06:29:43.699Z,101000.38
2018-07-17T06:32:10.681Z,100995.30
2018-07-17T06:34:37.674Z,100998.55
2018-07-17T06:37:04.894Z,100999.72
2018-07-17T06:39:31.926Z,101000.92
2018-07-17T06:41:58.970Z,100996.29
2018-07-17T06:44:25.977Z,101006.28
2018-07-17T06:46:52.952Z,101006.64
2018-07-17T06:49:20.029Z,100996.67
2018-07-17T06:51:47.102Z,101008.02
2018-07-17T06:54:14.081Z,101003.05
2018-07-17T06:56:41.090Z,101000.84
2018-07-17T06:59:08.133Z,101010.97
2018-07-17T07:01:35.138Z,101010.81
2018-07-17T07:04:02.205Z,101007.66
2018-07-17T07:09:27.283Z,101008.75
2018-07-17T07:11:54.265Z,101008.98
2018-07-17T07:14:21.580Z,101005.52
2018-07-17T07:16:48.562Z,101002.78
2018-07-17T07:19:15.704Z,101002.50
2018-07-17T07:21:42.702Z,101002.11
2018-07-17T07:24:09.747Z,101002.04
2018-07-17T07:26:36.809Z,101003.05
2018-07-17T07:29:03.819Z,101002.47
2018-07-17T07:31:30.810Z,101007.81
2018-07-17T07:33:57.822Z,100996.63
2018-07-17T07:36:24.865Z,101003.83
2018-07-17T07:38:51.847Z,101003.61
2018-07-17T07:41:18.805Z,101001.98
2018-07-17T07:43:45.808Z,100998.39
2018-07-17T07:46:12.782Z,101001.78
2018-07-17T07:48:39.750Z,101002.34
2018-07-17T07:51:07.388Z,101002.33
2018-07-17T07:53:34.673Z,101001.69
2018-07-17T07:56:01.915Z,100999.86
2018-07-17T07:58:28.940Z,100998.19
2018-07-17T08:00:55.922Z,100996.30
2018-07-17T08:03:23.101Z,100991.75
2018-07-17T08:05:50.101Z,100990.50
2018-07-17T08:08:17.254Z,100995.91
2018-07-17T08:10:44.254Z,100999.89
2018-07-17T08:13:11.244Z,100995.87
2018-07-17T08:15:38.509Z,100987.19
2018-07-17T08:18:05.670Z,100988.80
2018-07-17T08:20:32.714Z,100985.30
2018-07-17T08:22:59.773Z,100984.00
2018-07-17T08:25:27.901Z,100989.53
2018-07-17T08:27:54.885Z,100989.42
2018-07-17T08:30:22.929Z,100988.69
2018-07-17T08:32:49.959Z,100985.38
2018-07-17T08:35:16.979Z,100982.37
2018-07-17T08:37:43.972Z,100988.34
2018-07-17T08:40:10.946Z,100984.17
2018-07-17T08:42:37.912Z,100982.49
2018-07-17T08:45:05.116Z,100983.49
2018-07-17T08:47:32.116Z,100982.81
2018-07-17T08:49:59.149Z,100988.34
2018-07-17T08:52:26.117Z,100987.52
2018-07-17T08:54:53.120Z,100984.77
2018-07-17T08:57:20.121Z,100981.73
2018-07-17T08:59:47.125Z,100977.05
2018-07-17T09:02:14.118Z,100980.58
2018-07-17T09:04:41.195Z,100990.23
2018-07-17T09:07:08.244Z,100986.09
2018-07-17T09:09:35.605Z,100986.25
2018-07-17T09:12:02.601Z,100987.08
2018-07-17T09:14:29.685Z,100990.36
2018-07-17T09:16:57.662Z,100976.15
2018-07-17T09:19:24.700Z,100981.36
2018-07-17T09:21:53.634Z,100973.59
2018-07-17T09:24:20.837Z,100980.32
2018-07-17T09:26:47.985Z,100976.59
2018-07-17T09:29:15.457Z,100977.02
2018-07-17T09:31:42.720Z,100972.48
2018-07-17T09:34:09.749Z,100975.06
2018-07-17T09:36:36.888Z,100976.63
2018-07-17T09:39:06.298Z,100975.40
2018-07-17T09:41:33.365Z,100973.99
2018-07-17T09:44:00.338Z,100977.41
2018-07-17T09:46:27.369Z,100983.95
2018-07-17T09:48:55.047Z,100985.23
2018-07-17T09:51:22.037Z,100989.91
2018-07-17T09:53:49.037Z,100992.22
2018-07-17T09:56:16.134Z,100980.72
2018-07-17T09:58:43.189Z,100989.16
2018-07-17T10:01:15.930Z,100986.88
2018-07-17T10:03:42.939Z,100984.88
2018-07-17T10:06:09.941Z,100983.05
2018-07-17T10:08:36.926Z,100976.45
2018-07-17T10:11:03.947Z,100980.30
2018-07-17T10:13:31.005Z,100981.77
2018-07-17T10:15:58.006Z,100985.92
2018-07-17T10:18:25.017Z,100986.41
2018-07-17T10:20:52.043Z,100987.34
2018-07-17T10:23:19.039Z,100979.48
2018-07-17T10:25:46.053Z,100983.88
2018-07-17T10:28:13.261Z,100986.69
2018-07-17T10:30:40.265Z,100985.28
2018-07-17T10:33:07.265Z,100985.76
2018-07-17T10:35:34.646Z,100985.36
2018-07-17T10:38:01.798Z,100986.51
2018-07-17T10:40:28.827Z,100989.56
2018-07-17T10:42:55.820Z,100993.98
2018-07-17T10:45:22.845Z,100989.23
2018-07-17T10:47:49.836Z,100991.19
2018-07-17T10:50:16.961Z,100987.27
2018-07-17T10:52:43.944Z,100986.91
2018-07-17T10:55:10.963Z,100987.20
2018-07-17T10:57:38.001Z,100983.63
2018-07-17T11:00:04.998Z,100981.30
2018-07-17T11:02:32.657Z,100982.39
2018-07-17T11:04:59.617Z,100978.98
2018-07-17T11:07:27.130Z,100981.84
2018-07-17T11:09:54.094Z,100983.06
2018-07-17T11:12:21.753Z,100982.34
2018-07-17T11:14:48.955Z,100975.56
2018-07-17T11:17:15.953Z,100977.78
2018-07-17T11:19:42.937Z,100974.11
2018-07-17T11:22:10.131Z,100983.89
2018-07-17T11:24:37.105Z,100971.25
2018-07-17T11:27:04.941Z,100979.03
2018-07-17T11:29:31.932Z,100976.69
2018-07-17T11:31:59.753Z,100968.87
2018-07-17T11:34:26.777Z,100973.41
2018-07-17T11:36:53.774Z,100963.02
2018-07-17T11:39:20.832Z,100962.89
2018-07-17T11:41:47.821Z,100962.25
2018-07-17T11:44:14.917Z,100955.47
2018-07-17T11:46:42.314Z,100961.56
2018-07-17T11:49:09.301Z,100966.52
2018-07-17T11:51:36.306Z,100959.73
2018-07-17T11:54:03.292Z,100957.44
2018-07-17T11:56:30.752Z,100963.17
2018-07-17T11:58:58.826Z,100968.00
2018-07-17T12:01:25.797Z,100970.70
2018-07-17T12:03:52.812Z,100965.57
2018-07-17T12:06:19.904Z,100965.95
2018-07-17T12:08:46.925Z,100970.66
2018-07-17T12:11:13.972Z,100969.39
2018-07-17T12:13:40.974Z,100963.66
2018-07-17T12:16:07.989Z,100957.95
2018-07-17T12:18:35.054Z,100960.69
2018-07-17T12:21:02.080Z,100959.08
2018-07-17T12:23:29.101Z,100959.86
2018-07-17T12:25:56.104Z,100948.86
2018-07-17T12:28:23.477Z,100956.58
2018-07-17T12:30:50.568Z,100956.62
2018-07-17T12:33:17.569Z,100962.05
2018-07-17T12:35:44.716Z,100953.47
2018-07-17T12:38:11.722Z,100957.11
2018-07-17T12:40:38.699Z,100954.72
2018-07-17T12:43:06.689Z,100952.28
2018-07-17T12:45:33.686Z,100950.97
2018-07-17T12:48:00.958Z,100953.70
2018-07-17T12:50:28.540Z,100956.03
2018-07-17T12:52:55.848Z,100956.06
2018-07-17T12:55:22.913Z,100953.37
2018-07-17T12:57:50.050Z,100948.60
2018-07-17T13:00:16.996Z,100948.01
2018-07-17T13:02:44.031Z,100948.48
2018-07-17T13:05:11.041Z,100941.19
2018-07-17T13:07:38.007Z,100946.17
2018-07-17T13:10:05.549Z,100940.06
2018-07-17T13:12:32.577Z,100938.18
2018-07-17T13:14:59.566Z,100942.00
2018-07-17T13:17:26.665Z,100933.08
2018-07-17T13:19:53.689Z,100936.87
2018-07-17T13:22:20.685Z,100929.63
2018-07-17T13:24:47.677Z,100939.14
2018-07-17T13:27:14.748Z,100934.80
2018-07-17T13:29:41.777Z,100938.33
2018-07-17T13:32:09.047Z,100932.17
2018-07-17T13:34:36.100Z,100924.59
2018-07-17T13:37:03.106Z,100932.85
2018-07-17T13:39:30.125Z,100924.95
2018-07-17T13:41:57.105Z,100928.28
2018-07-17T13:44:24.132Z,100922.98
2018-07-17T13:46:51.369Z,100931.34
2018-07-17T13:49:18.589Z,100930.06
2018-07-17T13:51:45.593Z,100923.41
2018-07-17T13:54:12.580Z,100917.25
2018-07-17T13:56:39.553Z,100923.54
2018-07-17T13:59:06.549Z,100914.41
2018-07-17T14:01:33.509Z,100921.52
2018-07-17T14:04:00.517Z,100915.50
2018-07-17T14:06:27.490Z,100918.79
2018-07-17T14:08:54.470Z,100913.91
2018-07-17T14:11:21.613Z,100914.94
2018-07-17T14:13:48.637Z,100916.59
2018-07-17T14:16:15.605Z,100920.38
2018-07-17T14:18:42.597Z,100914.44
2018-07-17T14:21:09.560Z,100912.04
2018-07-17T14:23:36.530Z,100910.06
2018-07-17T14:26:03.523Z,100902.78
2018-07-17T14:28:30.527Z,100910.36
2018-07-17T14:30:57.520Z,100909.21
2018-07-17T14:33:24.528Z,100909.18
2018-07-17T14:35:51.558Z,100906.94
2018-07-17T14:38:18.546Z,100903.12
2018-07-17T14:40:45.608Z,100906.84
2018-07-17T14:43:19.478Z,100898.84
2018-07-17T14:45:46.448Z,100897.03
2018-07-17T14:48:13.456Z,100899.38
2018-07-17T14:50:40.449Z,100903.28
2018-07-17T14:53:07.425Z,100897.55
2018-07-17T14:55:34.445Z,100899.98
2018-07-17T14:58:01.441Z,100894.25
2018-07-17T15:00:28.490Z,100889.16
2018-07-17T15:02:55.529Z,100890.54
2018-07-17T15:05:22.541Z,100889.61
2018-07-17T15:07:49.585Z,100883.80
2018-07-17T15:10:16.594Z,100889.50
2018-07-17T15:12:43.628Z,100886.23
2018-07-17T15:15:10.809Z,100881.37
2018-07-17T15:17:37.772Z,100882.42
2018-07-17T15:20:04.849Z,100881.37
2018-07-17T15:22:31.884Z,100885.98
2018-07-17T15:24:59.195Z,100882.19
2018-07-17T15:27:26.802Z,100873.69
2018-07-17T15:29:53.782Z,100879.91
2018-07-17T15:32:20.933Z,100877.73
2018-07-17T15:34:48.041Z,100869.58
2018-07-17T15:37:15.041Z,100875.03
2018-07-17T15:39:42.016Z,100874.78
2018-07-17T15:42:09.013Z,100868.00
2018-07-17T15:44:36.033Z,100873.69
2018-07-17T15:47:03.020Z,100871.81
2018-07-17T15:49:30.053Z,100869.98
2018-07-17T15:51:57.081Z,100870.92
2018-07-17T15:54:24.073Z,100875.50
2018-07-17T15:56:51.113Z,100875.19
2018-07-17T15:59:19.113Z,100875.90
2018-07-17T16:01:46.213Z,100878.86
2018-07-17T16:04:13.281Z,100877.73
2018-07-17T16:06:40.310Z,100882.30
2018-07-17T16:09:07.663Z,100883.36
2018-07-17T16:11:34.947Z,100883.39
2018-07-17T16:14:02.357Z,100874.47
2018-07-17T16:16:28.985Z,100879.56
2018-07-17T16:18:56.058Z,100874.13
2018-07-17T16:21:23.117Z,100878.40
2018-07-17T16:23:50.173Z,100872.97
2018-07-17T16:26:17.370Z,100873.23
2018-07-17T16:28:44.341Z,100873.48
2018-07-17T16:31:11.405Z,100861.55
2018-07-17T16:33:38.541Z,100874.31
2018-07-17T16:36:05.560Z,100876.19
2018-07-17T16:38:32.556Z,100872.33
2018-07-17T16:40:59.520Z,100873.63
2018-07-17T16:43:26.529Z,100872.88
2018-07-17T16:45:53.647Z,100864.75
2018-07-17T16:48:20.649Z,100865.77
2018-07-17T16:50:47.672Z,100869.55
2018-07-17T16:53:14.781Z,100875.20
2018-07-17T16:55:41.757Z,100876.29
2018-07-17T16:58:08.749Z,100871.45
2018-07-17T17:00:35.932Z,100876.55
2018-07-17T17:03:02.916Z,100875.98
2018-07-17T17:05:29.921Z,100875.98
2018-07-17T17:07:56.925Z,100884.55
2018-07-17T17:10:23.997Z,100881.81
2018-07-17T17:12:51.633Z,100878.51
2018-07-17T17:15:18.582Z,100880.03
2018-07-17T17:17:46.066Z,100885.64
2018-07-17T17:20:13.086Z,100890.13
2018-07-17T17:22:40.069Z,100886.82
2018-07-17T17:25:07.084Z,100887.08
2018-07-17T17:27:34.091Z,100883.26
2018-07-17T17:30:01.067Z,100887.81
2018-07-17T17:32:28.233Z,100887.26
2018-07-17T17:34:55.237Z,100884.56
2018-07-17T17:37:22.213Z,100885.86
2018-07-17T17:39:49.228Z,100892.95
2018-07-17T17:42:16.210Z,100901.51
2018-07-17T17:44:43.861Z,100893.72
2018-07-17T17:47:10.881Z,100900.20
2018-07-17T17:49:37.951Z,100898.03
2018-07-17T17:52:04.931Z,100895.59
2018-07-17T17:54:31.938Z,100900.98
2018-07-17T17:56:58.978Z,100899.73
2018-07-17T17:59:26.005Z,100901.21
2018-07-17T18:01:52.981Z,100894.73
2018-07-17T18:04:19.956Z,100899.11
2018-07-17T18:06:47.062Z,100895.11
2018-07-17T18:09:14.455Z,100895.38
2018-07-17T18:11:41.461Z,100899.02
2018-07-17T18:14:08.483Z,100893.68
2018-07-17T18:16:35.537Z,100890.40
2018-07-17T18:19:02.530Z,100898.52
2018-07-17T18:21:29.522Z,100899.95
2018-07-17T18:23:56.525Z,100899.94
2018-07-17T18:26:23.546Z,100901.59
2018-07-17T18:28:50.514Z,100906.42
2018-07-17T18:31:17.550Z,100909.41
2018-07-17T18:33:44.585Z,100910.81
2018-07-17T18:36:11.565Z,100908.77
2018-07-17T18:38:38.542Z,100908.03
2018-07-17T18:41:05.538Z,100916.52
2018-07-17T18:43:32.545Z,100916.92
2018-07-17T18:45:59.547Z,100915.08
2018-07-17T18:48:26.549Z,100924.56
2018-07-17T18:50:53.508Z,100921.44
2018-07-17T18:53:20.685Z,100925.05
2018-07-17T18:55:47.682Z,100923.86
2018-07-17T18:58:14.749Z,100922.92
2018-07-17T19:00:41.793Z,100924.06
2018-07-17T19:03:08.786Z,100931.75
2018-07-17T19:05:36.037Z,100946.07
2018-07-17T19:08:03.002Z,100960.87
2018-07-17T19:10:29.995Z,100964.16
2018-07-17T19:12:56.961Z,100973.75
2018-07-17T19:15:23.960Z,100980.02
2018-07-17T19:17:51.025Z,100984.09
2018-07-17T19:20:18.014Z,101001.04
2018-07-17T19:22:45.021Z,101001.08
2018-07-17T19:25:12.042Z,101011.80
2018-07-17T19:27:39.037Z,101013.36
2018-07-17T19:30:06.146Z,101018.89
2018-07-17T19:32:33.177Z,101019.69
2018-07-17T19:35:00.153Z,101026.66
2018-07-17T19:37:27.301Z,101036.19
2018-07-17T19:39:54.353Z,101038.16
2018-07-17T19:42:21.333Z,101035.38
2018-07-17T19:44:48.394Z,101044.56
2018-07-17T19:47:15.437Z,101046.11
2018-07-17T19:49:42.386Z,101051.77
2018-07-17T19:52:09.374Z,101050.56
2018-07-17T19:54:36.345Z,101047.58
2018-07-17T19:57:03.841Z,101048.50
2018-07-17T19:59:30.869Z,101050.45
2018-07-17T20:01:57.944Z,101057.08
2018-07-17T20:04:25.072Z,101060.05
2018-07-17T20:06:52.066Z,101059.33
2018-07-17T20:09:19.640Z,101068.97
2018-07-17T20:11:46.660Z,101069.29
2018-07-17T20:14:13.665Z,101069.69
2018-07-17T20:16:40.757Z,101063.73
2018-07-17T20:19:08.321Z,101075.10
2018-07-17T20:21:35.327Z,101066.30
2018-07-17T20:24:02.355Z,101059.58
2018-07-17T20:26:29.374Z,101059.57
2018-07-17T20:28:56.390Z,101074.15
2018-07-17T20:31:23.387Z,101073.71
2018-07-17T20:33:50.535Z,101079.88
2018-07-17T20:36:18.317Z,101081.39
2018-07-17T20:38:45.285Z,101081.48
2018-07-17T20:41:12.286Z,101082.70
2018-07-17T20:43:39.293Z,101088.55
2018-07-17T20:46:06.289Z,101085.86
2018-07-17T20:48:33.365Z,101083.95
2018-07-17T20:51:00.352Z,101080.87
2018-07-17T20:53:27.981Z,101088.22
2018-07-17T20:55:55.338Z,101092.32
2018-07-17T20:58:22.337Z,101094.25
2018-07-17T21:00:49.450Z,101101.81
2018-07-17T21:03:16.507Z,101095.36
2018-07-17T21:05:43.505Z,101101.91
2018-07-17T21:08:10.489Z,101110.30
2018-07-17T21:10:37.489Z,101107.52
2018-07-17T21:13:04.756Z,101118.06
2018-07-17T21:15:31.697Z,101109.44
2018-07-17T21:17:58.708Z,101113.65
2018-07-17T21:20:25.723Z,101113.70
2018-07-17T21:22:52.729Z,101124.87
2018-07-17T21:25:19.749Z,101119.96
2018-07-17T21:27:46.719Z,101127.89
2018-07-17T21:30:13.720Z,101123.36
2018-07-17T21:32:40.694Z,101132.73
2018-07-17T21:35:07.953Z,101135.48
2018-07-17T21:37:34.992Z,101129.70
2018-07-17T21:40:02.070Z,101130.79
2018-07-17T21:42:29.053Z,101128.05
2018-07-17T21:44:56.063Z,101126.02
2018-07-17T21:47:23.093Z,101128.42
2018-07-17T21:49:50.140Z,101133.50
2018-07-17T21:52:17.192Z,101131.42
2018-07-17T21:54:44.326Z,101136.32
2018-07-17T21:57:11.381Z,101137.20
2018-07-17T21:59:38.577Z,101135.69
2018-07-17T22:02:05.738Z,101130.36
2018-07-17T22:04:33.077Z,101125.58
2018-07-17T22:07:00.039Z,101131.19
2018-07-17T22:09:27.012Z,101129.89
2018-07-17T22:11:54.029Z,101128.39
2018-07-17T22:14:21.041Z,101120.94
2018-07-17T22:16:48.017Z,101125.97
2018-07-17T22:19:14.991Z,101129.63
2018-07-17T22:21:42.001Z,101135.33
2018-07-17T22:24:09.029Z,101137.87
2018-07-17T22:26:36.030Z,101134.00
2018-07-17T22:29:03.083Z,101137.70
2018-07-17T22:31:30.145Z,101140.23
2018-07-17T22:33:57.500Z,101148.39
2018-07-17T22:36:24.617Z,101142.93
2018-07-17T22:38:51.621Z,101140.27
2018-07-17T22:41:18.622Z,101140.34
2018-07-17T22:43:45.733Z,101144.83
2018-07-17T22:46:12.729Z,101150.86
2018-07-17T22:48:39.757Z,101158.22
2018-07-17T22:51:06.777Z,101157.19
2018-07-17T22:53:33.748Z,101148.56
2018-07-17T22:56:00.741Z,101155.35
2018-07-17T22:58:27.769Z,101155.66
2018-07-17T23:00:54.904Z,101155.69
2018-07-17T23:03:21.896Z,101152.39
2018-07-17T23:05:48.945Z,101160.91
2018-07-17T23:08:16.009Z,101155.66
2018-07-17T23:10:43.021Z,101161.20
2018-07-17T23:13:10.245Z,101167.28
2018-07-17T23:15:37.311Z,101171.94
2018-07-17T23:18:04.557Z,101171.00
2018-07-17T23:20:31.545Z,101174.39
2018-07-17T23:22:59.302Z,101175.44
2018-07-17T23:25:28.520Z,101173.67
2018-07-17T23:27:56.312Z,101178.52
2018-07-17T23:30:23.409Z,101178.09
2018-07-17T23:32:50.872Z,101174.66
2018-07-17T23:35:18.993Z,101173.69
2018-07-17T23:37:46.085Z,101174.23
2018-07-17T23:40:13.460Z,101177.47
2018-07-17T23:42:40.577Z,101179.01
2018-07-17T23:45:07.850Z,101174.40
2018-07-17T23:47:35.020Z,101172.59
2018-07-17T23:50:02.090Z,101168.84
2018-07-17T23:52:29.094Z,101170.04
2018-07-17T23:54:56.128Z,101162.80
2018-07-17T23:57:23.498Z,101169.80
2018-07-17T23:59:50.534Z,101176.30
